sensor_id;sensor_type;location;lat;lon;timestamp;P1;durP1;ratioP1;P2;durP2;ratioP2
49237;SDS011;35069;47.906;1.892;2022-11-18T00:01:31;8.40;;;1.48;;
49237;SDS011;35069;47.906;1.892;2022-11-18T00:03:56;5.60;;;1.48;;
49237;SDS011;35069;47.906;1.892;2022-11-18T00:06:23;3.70;;;1.45;;
49237;SDS011;35069;47.906;1.892;2022-11-18T00:08:50;3.08;;;1.00;;
49237;SDS011;35069;47.906;1.892;2022-11-18T00:11:18;5.20;;;1.40;;
49237;SDS011;35069;47.906;1.892;2022-11-18T00:14:04;2.35;;;1.02;;
49237;SDS011;35069;47.906;1.892;2022-11-18T00:16:49;1.50;;;1.10;;
49237;SDS011;35069;47.906;1.892;2022-11-18T00:19:20;3.40;;;1.15;;
49237;SDS011;35069;47.906;1.892;2022-11-18T00:21:47;5.35;;;1.13;;
49237;SDS011;35069;47.906;1.892;2022-11-18T00:24:13;5.88;;;1.20;;
49237;SDS011;35069;47.906;1.892;2022-11-18T00:26:39;4.35;;;1.58;;
49237;SDS011;35069;47.906;1.892;2022-11-18T00:29:05;8.57;;;1.27;;
49237;SDS011;35069;47.906;1.892;2022-11-18T00:31:30;4.63;;;1.60;;
49237;SDS011;35069;47.906;1.892;2022-11-18T00:33:56;10.80;;;1.80;;
49237;SDS011;35069;47.906;1.892;2022-11-18T00:36:21;6.28;;;1.60;;
49237;SDS011;35069;47.906;1.892;2022-11-18T00:38:47;5.68;;;1.52;;
49237;SDS011;35069;47.906;1.892;2022-11-18T00:41:13;4.25;;;1.40;;
49237;SDS011;35069;47.906;1.892;2022-11-18T00:43:40;3.33;;;1.10;;
49237;SDS011;35069;47.906;1.892;2022-11-18T00:46:07;5.60;;;1.05;;
49237;SDS011;35069;47.906;1.892;2022-11-18T00:48:34;5.15;;;1.17;;
49237;SDS011;35069;47.906;1.892;2022-11-18T00:51:08;4.63;;;1.30;;
49237;SDS011;35069;47.906;1.892;2022-11-18T00:53:41;6.63;;;1.23;;
49237;SDS011;35069;47.906;1.892;2022-11-18T00:56:08;6.32;;;1.58;;
49237;SDS011;35069;47.906;1.892;2022-11-18T00:58:34;5.22;;;1.77;;
49237;SDS011;35069;47.906;1.892;2022-11-18T01:01:00;6.38;;;1.33;;
49237;SDS011;35069;47.906;1.892;2022-11-18T01:03:27;5.82;;;1.63;;
49237;SDS011;35069;47.906;1.892;2022-11-18T01:05:53;2.80;;;1.60;;
49237;SDS011;35069;47.906;1.892;2022-11-18T01:08:19;7.53;;;1.50;;
49237;SDS011;35069;47.906;1.892;2022-11-18T01:10:46;5.75;;;1.55;;
49237;SDS011;35069;47.906;1.892;2022-11-18T01:13:13;7.88;;;1.55;;
49237;SDS011;35069;47.906;1.892;2022-11-18T01:15:45;7.47;;;1.20;;
49237;SDS011;35069;47.906;1.892;2022-11-18T01:18:11;7.03;;;1.50;;
49237;SDS011;35069;47.906;1.892;2022-11-18T01:20:36;4.85;;;1.52;;
49237;SDS011;35069;47.906;1.892;2022-11-18T01:23:02;4.40;;;1.70;;
49237;SDS011;35069;47.906;1.892;2022-11-18T01:25:28;3.00;;;1.42;;
49237;SDS011;35069;47.906;1.892;2022-11-18T01:27:54;10.07;;;1.90;;
49237;SDS011;35069;47.906;1.892;2022-11-18T01:30:20;6.28;;;1.35;;
49237;SDS011;35069;47.906;1.892;2022-11-18T01:32:46;3.90;;;1.30;;
49237;SDS011;35069;47.906;1.892;2022-11-18T01:35:11;5.95;;;2.00;;
49237;SDS011;35069;47.906;1.892;2022-11-18T01:37:37;12.32;;;4.15;;
49237;SDS011;35069;47.906;1.892;2022-11-18T01:40:04;10.85;;;1.45;;
49237;SDS011;35069;47.906;1.892;2022-11-18T01:42:31;7.57;;;1.67;;
49237;SDS011;35069;47.906;1.892;2022-11-18T01:45:03;4.75;;;0.95;;
49237;SDS011;35069;47.906;1.892;2022-11-18T01:47:35;8.88;;;1.88;;
49237;SDS011;35069;47.906;1.892;2022-11-18T01:50:08;5.50;;;1.35;;
49237;SDS011;35069;47.906;1.892;2022-11-18T01:52:34;11.10;;;1.85;;
49237;SDS011;35069;47.906;1.892;2022-11-18T01:55:02;8.00;;;1.48;;
49237;SDS011;35069;47.906;1.892;2022-11-18T01:57:31;9.50;;;2.92;;
49237;SDS011;35069;47.906;1.892;2022-11-18T01:59:58;10.40;;;2.05;;
49237;SDS011;35069;47.906;1.892;2022-11-18T02:02:29;8.10;;;1.77;;
49237;SDS011;35069;47.906;1.892;2022-11-18T02:04:56;8.20;;;1.67;;
49237;SDS011;35069;47.906;1.892;2022-11-18T02:07:23;7.95;;;1.95;;
49237;SDS011;35069;47.906;1.892;2022-11-18T02:09:49;7.53;;;1.83;;
49237;SDS011;35069;47.906;1.892;2022-11-18T02:12:17;5.47;;;1.60;;
49237;SDS011;35069;47.906;1.892;2022-11-18T02:14:44;10.77;;;1.65;;
49237;SDS011;35069;47.906;1.892;2022-11-18T02:37:21;6.28;;;1.33;;
49237;SDS011;35069;47.906;1.892;2022-11-18T02:39:53;11.38;;;2.45;;
49237;SDS011;35069;47.906;1.892;2022-11-18T02:42:24;6.63;;;1.85;;
49237;SDS011;35069;47.906;1.892;2022-11-18T02:44:55;6.70;;;1.90;;
49237;SDS011;35069;47.906;1.892;2022-11-18T02:47:25;10.10;;;3.00;;
49237;SDS011;35069;47.906;1.892;2022-11-18T02:49:54;5.57;;;2.08;;
49237;SDS011;35069;47.906;1.892;2022-11-18T02:52:24;14.02;;;1.60;;
49237;SDS011;35069;47.906;1.892;2022-11-18T02:54:51;7.57;;;1.85;;
49237;SDS011;35069;47.906;1.892;2022-11-18T02:57:19;7.45;;;1.70;;
49237;SDS011;35069;47.906;1.892;2022-11-18T02:59:47;5.72;;;2.05;;
49237;SDS011;35069;47.906;1.892;2022-11-18T03:02:16;5.53;;;1.73;;
49237;SDS011;35069;47.906;1.892;2022-11-18T03:04:47;9.55;;;1.63;;
49237;SDS011;35069;47.906;1.892;2022-11-18T03:09:47;7.45;;;2.15;;
49237;SDS011;35069;47.906;1.892;2022-11-18T03:20:37;8.05;;;1.80;;
49237;SDS011;35069;47.906;1.892;2022-11-18T03:25:48;12.48;;;2.33;;
49237;SDS011;35069;47.906;1.892;2022-11-18T03:33:42;11.90;;;2.13;;
49237;SDS011;35069;47.906;1.892;2022-11-18T03:36:11;8.23;;;1.95;;
49237;SDS011;35069;47.906;1.892;2022-11-18T03:38:43;6.53;;;2.40;;
49237;SDS011;35069;47.906;1.892;2022-11-18T03:41:11;9.40;;;2.00;;
49237;SDS011;35069;47.906;1.892;2022-11-18T03:43:42;7.97;;;2.22;;
49237;SDS011;35069;47.906;1.892;2022-11-18T03:46:25;7.95;;;1.83;;
49237;SDS011;35069;47.906;1.892;2022-11-18T03:48:58;11.65;;;2.20;;
49237;SDS011;35069;47.906;1.892;2022-11-18T03:51:27;14.90;;;2.33;;
49237;SDS011;35069;47.906;1.892;2022-11-18T03:54:02;7.85;;;1.75;;
49237;SDS011;35069;47.906;1.892;2022-11-18T03:56:37;11.68;;;1.77;;
49237;SDS011;35069;47.906;1.892;2022-11-18T03:59:23;4.88;;;1.20;;
49237;SDS011;35069;47.906;1.892;2022-11-18T04:02:03;11.80;;;1.83;;
49237;SDS011;35069;47.906;1.892;2022-11-18T04:04:34;8.25;;;2.97;;
49237;SDS011;35069;47.906;1.892;2022-11-18T04:09:45;14.00;;;1.88;;
49237;SDS011;35069;47.906;1.892;2022-11-18T04:12:18;3.78;;;1.60;;
49237;SDS011;35069;47.906;1.892;2022-11-18T04:14:47;14.32;;;2.72;;
49237;SDS011;35069;47.906;1.892;2022-11-18T04:17:16;19.73;;;3.45;;
49237;SDS011;35069;47.906;1.892;2022-11-18T04:19:45;8.15;;;1.88;;
49237;SDS011;35069;47.906;1.892;2022-11-18T04:22:11;5.85;;;1.67;;
49237;SDS011;35069;47.906;1.892;2022-11-18T04:24:37;11.00;;;1.58;;
49237;SDS011;35069;47.906;1.892;2022-11-18T04:27:03;5.38;;;1.58;;
49237;SDS011;35069;47.906;1.892;2022-11-18T04:29:30;6.05;;;1.63;;
49237;SDS011;35069;47.906;1.892;2022-11-18T04:31:57;10.35;;;2.15;;
49237;SDS011;35069;47.906;1.892;2022-11-18T04:34:23;4.82;;;1.70;;
49237;SDS011;35069;47.906;1.892;2022-11-18T04:36:49;9.00;;;1.52;;
49237;SDS011;35069;47.906;1.892;2022-11-18T04:39:15;10.18;;;2.28;;
49237;SDS011;35069;47.906;1.892;2022-11-18T04:41:42;7.07;;;1.70;;
49237;SDS011;35069;47.906;1.892;2022-11-18T04:44:30;8.35;;;1.83;;
49237;SDS011;35069;47.906;1.892;2022-11-18T04:46:58;8.43;;;1.55;;
49237;SDS011;35069;47.906;1.892;2022-11-18T04:49:25;11.50;;;2.35;;
49237;SDS011;35069;47.906;1.892;2022-11-18T04:51:52;6.30;;;1.83;;
49237;SDS011;35069;47.906;1.892;2022-11-18T04:54:18;11.75;;;1.58;;
49237;SDS011;35069;47.906;1.892;2022-11-18T04:56:45;7.70;;;2.33;;
49237;SDS011;35069;47.906;1.892;2022-11-18T04:59:11;12.73;;;3.08;;
49237;SDS011;35069;47.906;1.892;2022-11-18T05:01:38;6.07;;;1.48;;
49237;SDS011;35069;47.906;1.892;2022-11-18T05:04:04;6.80;;;1.55;;
49237;SDS011;35069;47.906;1.892;2022-11-18T05:06:30;6.07;;;1.60;;
49237;SDS011;35069;47.906;1.892;2022-11-18T05:08:57;9.65;;;2.05;;
49237;SDS011;35069;47.906;1.892;2022-11-18T05:11:23;3.95;;;1.48;;
49237;SDS011;35069;47.906;1.892;2022-11-18T05:14:08;10.50;;;2.65;;
49237;SDS011;35069;47.906;1.892;2022-11-18T05:16:34;10.73;;;2.67;;
49237;SDS011;35069;47.906;1.892;2022-11-18T05:19:03;9.52;;;1.80;;
49237;SDS011;35069;47.906;1.892;2022-11-18T05:21:29;8.05;;;2.28;;
49237;SDS011;35069;47.906;1.892;2022-11-18T05:23:57;4.18;;;1.58;;
49237;SDS011;35069;47.906;1.892;2022-11-18T05:26:23;5.57;;;1.67;;
49237;SDS011;35069;47.906;1.892;2022-11-18T05:28:48;5.70;;;1.75;;
49237;SDS011;35069;47.906;1.892;2022-11-18T05:31:14;7.88;;;1.80;;
49237;SDS011;35069;47.906;1.892;2022-11-18T05:33:41;6.80;;;1.65;;
49237;SDS011;35069;47.906;1.892;2022-11-18T05:36:08;7.00;;;1.77;;
49237;SDS011;35069;47.906;1.892;2022-11-18T05:38:36;9.80;;;1.63;;
49237;SDS011;35069;47.906;1.892;2022-11-18T05:41:02;11.25;;;1.80;;
49237;SDS011;35069;47.906;1.892;2022-11-18T05:43:28;8.52;;;1.73;;
49237;SDS011;35069;47.906;1.892;2022-11-18T05:45:55;8.38;;;1.65;;
49237;SDS011;35069;47.906;1.892;2022-11-18T05:48:21;9.00;;;1.90;;
49237;SDS011;35069;47.906;1.892;2022-11-18T05:50:48;9.68;;;2.97;;
49237;SDS011;35069;47.906;1.892;2022-11-18T05:53:15;17.45;;;2.17;;
49237;SDS011;35069;47.906;1.892;2022-11-18T05:55:59;10.68;;;1.77;;
49237;SDS011;35069;47.906;1.892;2022-11-18T05:58:31;8.73;;;2.42;;
49237;SDS011;35069;47.906;1.892;2022-11-18T06:00:59;18.45;;;2.80;;
49237;SDS011;35069;47.906;1.892;2022-11-18T06:03:28;6.68;;;1.88;;
49237;SDS011;35069;47.906;1.892;2022-11-18T06:05:58;12.25;;;2.47;;
49237;SDS011;35069;47.906;1.892;2022-11-18T06:08:28;12.32;;;2.35;;
49237;SDS011;35069;47.906;1.892;2022-11-18T06:11:01;11.57;;;2.00;;
49237;SDS011;35069;47.906;1.892;2022-11-18T06:13:31;10.65;;;1.80;;
49237;SDS011;35069;47.906;1.892;2022-11-18T06:16:01;6.38;;;2.03;;
49237;SDS011;35069;47.906;1.892;2022-11-18T06:18:28;12.77;;;2.20;;
49237;SDS011;35069;47.906;1.892;2022-11-18T06:20:56;12.93;;;2.72;;
49237;SDS011;35069;47.906;1.892;2022-11-18T06:23:25;10.48;;;2.60;;
49237;SDS011;35069;47.906;1.892;2022-11-18T06:25:53;10.77;;;2.90;;
49237;SDS011;35069;47.906;1.892;2022-11-18T06:28:19;11.52;;;3.33;;
49237;SDS011;35069;47.906;1.892;2022-11-18T06:30:45;15.73;;;2.72;;
49237;SDS011;35069;47.906;1.892;2022-11-18T06:33:11;9.73;;;2.80;;
49237;SDS011;35069;47.906;1.892;2022-11-18T06:35:36;7.03;;;2.25;;
49237;SDS011;35069;47.906;1.892;2022-11-18T06:38:02;10.80;;;2.88;;
49237;SDS011;35069;47.906;1.892;2022-11-18T06:40:28;12.45;;;2.60;;
49237;SDS011;35069;47.906;1.892;2022-11-18T06:42:53;11.85;;;2.22;;
49237;SDS011;35069;47.906;1.892;2022-11-18T06:45:38;13.60;;;2.50;;
49237;SDS011;35069;47.906;1.892;2022-11-18T06:48:24;12.05;;;2.28;;
49237;SDS011;35069;47.906;1.892;2022-11-18T06:50:49;8.35;;;2.00;;
49237;SDS011;35069;47.906;1.892;2022-11-18T06:53:15;9.73;;;2.53;;
49237;SDS011;35069;47.906;1.892;2022-11-18T06:55:40;13.27;;;2.30;;
49237;SDS011;35069;47.906;1.892;2022-11-18T06:58:06;8.73;;;1.85;;
49237;SDS011;35069;47.906;1.892;2022-11-18T07:00:31;9.82;;;2.20;;
49237;SDS011;35069;47.906;1.892;2022-11-18T07:02:57;28.05;;;4.78;;
49237;SDS011;35069;47.906;1.892;2022-11-18T07:05:22;6.30;;;1.83;;
49237;SDS011;35069;47.906;1.892;2022-11-18T07:07:48;13.18;;;2.60;;
49237;SDS011;35069;47.906;1.892;2022-11-18T07:10:13;13.80;;;2.40;;
49237;SDS011;35069;47.906;1.892;2022-11-18T07:12:39;14.93;;;2.35;;
49237;SDS011;35069;47.906;1.892;2022-11-18T07:15:05;9.48;;;3.47;;
49237;SDS011;35069;47.906;1.892;2022-11-18T07:17:31;13.68;;;2.83;;
49237;SDS011;35069;47.906;1.892;2022-11-18T07:19:57;9.45;;;1.75;;
49237;SDS011;35069;47.906;1.892;2022-11-18T07:22:22;8.48;;;1.70;;
49237;SDS011;35069;47.906;1.892;2022-11-18T07:24:48;8.52;;;2.97;;
49237;SDS011;35069;47.906;1.892;2022-11-18T07:27:13;4.43;;;1.75;;
49237;SDS011;35069;47.906;1.892;2022-11-18T07:29:39;12.57;;;2.13;;
49237;SDS011;35069;47.906;1.892;2022-11-18T07:32:05;7.63;;;2.28;;
49237;SDS011;35069;47.906;1.892;2022-11-18T07:34:30;8.52;;;2.03;;
49237;SDS011;35069;47.906;1.892;2022-11-18T07:36:56;11.82;;;2.28;;
49237;SDS011;35069;47.906;1.892;2022-11-18T07:39:21;8.30;;;2.28;;
49237;SDS011;35069;47.906;1.892;2022-11-18T07:41:47;9.80;;;2.10;;
49237;SDS011;35069;47.906;1.892;2022-11-18T07:44:12;10.40;;;2.95;;
49237;SDS011;35069;47.906;1.892;2022-11-18T07:46:38;15.32;;;2.72;;
49237;SDS011;35069;47.906;1.892;2022-11-18T07:49:05;9.35;;;2.78;;
49237;SDS011;35069;47.906;1.892;2022-11-18T07:51:33;10.15;;;2.97;;
49237;SDS011;35069;47.906;1.892;2022-11-18T07:54:00;12.57;;;2.00;;
49237;SDS011;35069;47.906;1.892;2022-11-18T07:56:30;12.68;;;2.15;;
49237;SDS011;35069;47.906;1.892;2022-11-18T07:58:56;11.43;;;2.42;;
49237;SDS011;35069;47.906;1.892;2022-11-18T08:01:23;8.48;;;1.70;;
49237;SDS011;35069;47.906;1.892;2022-11-18T08:03:51;6.65;;;2.45;;
49237;SDS011;35069;47.906;1.892;2022-11-18T08:06:17;9.82;;;2.10;;
49237;SDS011;35069;47.906;1.892;2022-11-18T08:08:43;9.77;;;2.92;;
49237;SDS011;35069;47.906;1.892;2022-11-18T08:11:11;19.00;;;2.88;;
49237;SDS011;35069;47.906;1.892;2022-11-18T08:13:38;17.40;;;3.28;;
49237;SDS011;35069;47.906;1.892;2022-11-18T08:16:05;11.30;;;2.58;;
49237;SDS011;35069;47.906;1.892;2022-11-18T08:18:40;6.22;;;2.30;;
49237;SDS011;35069;47.906;1.892;2022-11-18T08:21:06;15.15;;;3.47;;
49237;SDS011;35069;47.906;1.892;2022-11-18T08:23:32;11.13;;;2.35;;
49237;SDS011;35069;47.906;1.892;2022-11-18T08:26:02;14.10;;;2.75;;
49237;SDS011;35069;47.906;1.892;2022-11-18T08:28:29;12.48;;;2.53;;
49237;SDS011;35069;47.906;1.892;2022-11-18T08:30:55;17.70;;;3.20;;
49237;SDS011;35069;47.906;1.892;2022-11-18T08:33:20;10.65;;;2.60;;
49237;SDS011;35069;47.906;1.892;2022-11-18T08:35:46;8.18;;;3.05;;
49237;SDS011;35069;47.906;1.892;2022-11-18T08:38:11;12.48;;;2.40;;
49237;SDS011;35069;47.906;1.892;2022-11-18T08:40:38;15.77;;;2.88;;
49237;SDS011;35069;47.906;1.892;2022-11-18T08:43:09;14.43;;;3.85;;
49237;SDS011;35069;47.906;1.892;2022-11-18T08:45:36;9.02;;;2.45;;
49237;SDS011;35069;47.906;1.892;2022-11-18T08:48:05;11.68;;;2.50;;
49237;SDS011;35069;47.906;1.892;2022-11-18T08:50:31;16.73;;;2.97;;
49237;SDS011;35069;47.906;1.892;2022-11-18T08:52:56;12.30;;;2.67;;
49237;SDS011;35069;47.906;1.892;2022-11-18T08:55:22;8.57;;;2.78;;
49237;SDS011;35069;47.906;1.892;2022-11-18T08:57:47;5.25;;;2.13;;
49237;SDS011;35069;47.906;1.892;2022-11-18T09:00:13;14.55;;;3.80;;
49237;SDS011;35069;47.906;1.892;2022-11-18T09:02:40;12.07;;;2.03;;
49237;SDS011;35069;47.906;1.892;2022-11-18T09:05:05;9.18;;;2.67;;
49237;SDS011;35069;47.906;1.892;2022-11-18T09:07:31;13.23;;;3.67;;
49237;SDS011;35069;47.906;1.892;2022-11-18T09:09:57;19.33;;;2.70;;
49237;SDS011;35069;47.906;1.892;2022-11-18T09:12:22;7.05;;;2.83;;
49237;SDS011;35069;47.906;1.892;2022-11-18T09:14:48;10.07;;;3.13;;
49237;SDS011;35069;47.906;1.892;2022-11-18T09:17:14;11.43;;;3.10;;
49237;SDS011;35069;47.906;1.892;2022-11-18T09:19:40;14.63;;;3.42;;
49237;SDS011;35069;47.906;1.892;2022-11-18T09:22:05;8.55;;;1.90;;
49237;SDS011;35069;47.906;1.892;2022-11-18T09:24:32;10.07;;;2.55;;
49237;SDS011;35069;47.906;1.892;2022-11-18T09:26:58;12.15;;;2.97;;
49237;SDS011;35069;47.906;1.892;2022-11-18T09:29:28;9.88;;;2.75;;
49237;SDS011;35069;47.906;1.892;2022-11-18T09:31:54;13.00;;;2.58;;
49237;SDS011;35069;47.906;1.892;2022-11-18T09:34:20;10.02;;;2.83;;
49237;SDS011;35069;47.906;1.892;2022-11-18T09:36:49;12.57;;;2.03;;
49237;SDS011;35069;47.906;1.892;2022-11-18T09:39:15;14.80;;;2.80;;
49237;SDS011;35069;47.906;1.892;2022-11-18T09:47:00;9.48;;;2.35;;
49237;SDS011;35069;47.906;1.892;2022-11-18T09:49:47;11.38;;;2.20;;
49237;SDS011;35069;47.906;1.892;2022-11-18T09:52:17;13.98;;;2.15;;
49237;SDS011;35069;47.906;1.892;2022-11-18T09:54:57;10.23;;;2.80;;
49237;SDS011;35069;47.906;1.892;2022-11-18T09:57:37;19.25;;;3.75;;
49237;SDS011;35069;47.906;1.892;2022-11-18T10:00:15;13.55;;;3.22;;
49237;SDS011;35069;47.906;1.892;2022-11-18T10:05:15;15.20;;;2.45;;
49237;SDS011;35069;47.906;1.892;2022-11-18T10:13:13;6.20;;;2.10;;
49237;SDS011;35069;47.906;1.892;2022-11-18T10:24:18;20.05;;;3.33;;
49237;SDS011;35069;47.906;1.892;2022-11-18T10:26:44;11.88;;;2.40;;
49237;SDS011;35069;47.906;1.892;2022-11-18T10:29:10;10.23;;;2.25;;
49237;SDS011;35069;47.906;1.892;2022-11-18T10:31:42;13.95;;;2.75;;
49237;SDS011;35069;47.906;1.892;2022-11-18T10:34:28;8.32;;;1.90;;
49237;SDS011;35069;47.906;1.892;2022-11-18T10:37:03;5.45;;;2.35;;
49237;SDS011;35069;47.906;1.892;2022-11-18T10:39:48;10.82;;;2.33;;
49237;SDS011;35069;47.906;1.892;2022-11-18T10:42:16;7.50;;;2.60;;
49237;SDS011;35069;47.906;1.892;2022-11-18T10:44:49;3.45;;;1.25;;
49237;SDS011;35069;47.906;1.892;2022-11-18T10:49:46;10.57;;;2.28;;
49237;SDS011;35069;47.906;1.892;2022-11-18T10:52:12;8.90;;;2.08;;
49237;SDS011;35069;47.906;1.892;2022-11-18T10:54:39;8.32;;;2.13;;
49237;SDS011;35069;47.906;1.892;2022-11-18T10:57:06;8.77;;;2.08;;
49237;SDS011;35069;47.906;1.892;2022-11-18T10:59:51;16.08;;;2.08;;
49237;SDS011;35069;47.906;1.892;2022-11-18T11:02:20;14.05;;;2.38;;
49237;SDS011;35069;47.906;1.892;2022-11-18T11:04:55;8.63;;;2.33;;
49237;SDS011;35069;47.906;1.892;2022-11-18T11:12:41;4.88;;;1.60;;
49237;SDS011;35069;47.906;1.892;2022-11-18T11:15:15;7.35;;;1.30;;
49237;SDS011;35069;47.906;1.892;2022-11-18T11:17:51;7.18;;;2.00;;
49237;SDS011;35069;47.906;1.892;2022-11-18T11:20:50;6.10;;;1.45;;
49237;SDS011;35069;47.906;1.892;2022-11-18T11:23:16;12.57;;;3.70;;
49237;SDS011;35069;47.906;1.892;2022-11-18T11:26:45;8.13;;;2.00;;
49237;SDS011;35069;47.906;1.892;2022-11-18T11:29:01;14.77;;;1.73;;
49237;SDS011;35069;47.906;1.892;2022-11-18T11:31:40;14.93;;;1.77;;
49237;SDS011;35069;47.906;1.892;2022-11-18T11:43:29;4.32;;;1.75;;
49237;SDS011;35069;47.906;1.892;2022-11-18T11:48:51;10.80;;;2.97;;
49237;SDS011;35069;47.906;1.892;2022-11-18T11:57:03;7.18;;;2.40;;
49237;SDS011;35069;47.906;1.892;2022-11-18T11:59:57;4.20;;;1.33;;
49237;SDS011;35069;47.906;1.892;2022-11-18T12:05:16;6.13;;;1.90;;
49237;SDS011;35069;47.906;1.892;2022-11-18T12:13:00;6.75;;;1.92;;
49237;SDS011;35069;47.906;1.892;2022-11-18T12:15:43;6.50;;;1.95;;
49237;SDS011;35069;47.906;1.892;2022-11-18T12:20:54;5.50;;;1.60;;
49237;SDS011;35069;47.906;1.892;2022-11-18T12:23:24;7.72;;;2.35;;
49237;SDS011;35069;47.906;1.892;2022-11-18T12:25:58;4.97;;;1.60;;
49237;SDS011;35069;47.906;1.892;2022-11-18T12:31:25;4.40;;;1.60;;
49237;SDS011;35069;47.906;1.892;2022-11-18T12:39:44;9.23;;;1.63;;
49237;SDS011;35069;47.906;1.892;2022-11-18T12:44:36;18.80;;;2.55;;
49237;SDS011;35069;47.906;1.892;2022-11-18T12:47:07;8.75;;;1.50;;
49237;SDS011;35069;47.906;1.892;2022-11-18T12:52:03;6.93;;;1.70;;
49237;SDS011;35069;47.906;1.892;2022-11-18T12:57:02;4.80;;;1.70;;
49237;SDS011;35069;47.906;1.892;2022-11-18T12:59:39;10.20;;;2.30;;
49237;SDS011;35069;47.906;1.892;2022-11-18T13:02:14;7.13;;;2.78;;
49237;SDS011;35069;47.906;1.892;2022-11-18T13:04:43;11.60;;;2.17;;
49237;SDS011;35069;47.906;1.892;2022-11-18T13:07:10;4.65;;;1.60;;
49237;SDS011;35069;47.906;1.892;2022-11-18T13:09:55;11.38;;;1.58;;
49237;SDS011;35069;47.906;1.892;2022-11-18T13:12:21;10.23;;;1.75;;
49237;SDS011;35069;47.906;1.892;2022-11-18T13:14:50;11.40;;;1.80;;
49237;SDS011;35069;47.906;1.892;2022-11-18T13:17:39;5.43;;;1.85;;
49237;SDS011;35069;47.906;1.892;2022-11-18T13:20:30;7.38;;;1.65;;
49237;SDS011;35069;47.906;1.892;2022-11-18T13:26:18;9.23;;;2.28;;
49237;SDS011;35069;47.906;1.892;2022-11-18T13:31:40;7.78;;;2.38;;
49237;SDS011;35069;47.906;1.892;2022-11-18T13:35:04;8.80;;;2.13;;
49237;SDS011;35069;47.906;1.892;2022-11-18T13:37:23;9.93;;;2.20;;
49237;SDS011;35069;47.906;1.892;2022-11-18T13:39:50;6.25;;;2.00;;
49237;SDS011;35069;47.906;1.892;2022-11-18T13:42:20;6.43;;;1.90;;
49237;SDS011;35069;47.906;1.892;2022-11-18T13:45:10;8.70;;;2.13;;
49237;SDS011;35069;47.906;1.892;2022-11-18T13:47:39;13.77;;;2.55;;
49237;SDS011;35069;47.906;1.892;2022-11-18T13:52:37;8.43;;;1.80;;
49237;SDS011;35069;47.906;1.892;2022-11-18T13:55:14;10.93;;;1.95;;
49237;SDS011;35069;47.906;1.892;2022-11-18T13:57:49;11.70;;;2.22;;
49237;SDS011;35069;47.906;1.892;2022-11-18T14:00:26;7.47;;;2.30;;
49237;SDS011;35069;47.906;1.892;2022-11-18T14:03:00;9.43;;;1.90;;
49237;SDS011;35069;47.906;1.892;2022-11-18T14:05:29;14.50;;;3.45;;
49237;SDS011;35069;47.906;1.892;2022-11-18T14:08:02;13.18;;;3.13;;
49237;SDS011;35069;47.906;1.892;2022-11-18T14:10:40;12.68;;;2.53;;
49237;SDS011;35069;47.906;1.892;2022-11-18T14:13:13;10.80;;;2.72;;
49237;SDS011;35069;47.906;1.892;2022-11-18T14:16:00;15.75;;;2.55;;
49237;SDS011;35069;47.906;1.892;2022-11-18T14:18:48;13.40;;;3.08;;
49237;SDS011;35069;47.906;1.892;2022-11-18T14:21:25;9.43;;;3.30;;
49237;SDS011;35069;47.906;1.892;2022-11-18T14:23:53;7.60;;;2.42;;
49237;SDS011;35069;47.906;1.892;2022-11-18T14:26:26;11.70;;;3.55;;
49237;SDS011;35069;47.906;1.892;2022-11-18T14:28:53;16.73;;;2.53;;
49237;SDS011;35069;47.906;1.892;2022-11-18T14:31:27;8.82;;;2.15;;
49237;SDS011;35069;47.906;1.892;2022-11-18T14:36:44;6.40;;;2.17;;
49237;SDS011;35069;47.906;1.892;2022-11-18T14:39:21;15.48;;;3.38;;
49237;SDS011;35069;47.906;1.892;2022-11-18T14:41:49;12.13;;;2.72;;
49237;SDS011;35069;47.906;1.892;2022-11-18T14:44:19;9.90;;;2.15;;
49237;SDS011;35069;47.906;1.892;2022-11-18T14:46:47;13.60;;;4.07;;
49237;SDS011;35069;47.906;1.892;2022-11-18T14:49:18;13.10;;;3.20;;
49237;SDS011;35069;47.906;1.892;2022-11-18T14:51:48;8.90;;;2.28;;
49237;SDS011;35069;47.906;1.892;2022-11-18T14:54:18;8.35;;;2.45;;
49237;SDS011;35069;47.906;1.892;2022-11-18T14:56:45;14.38;;;2.85;;
49237;SDS011;35069;47.906;1.892;2022-11-18T14:59:13;6.55;;;3.05;;
49237;SDS011;35069;47.906;1.892;2022-11-18T15:01:40;12.45;;;2.17;;
49237;SDS011;35069;47.906;1.892;2022-11-18T15:04:07;11.77;;;1.92;;
49237;SDS011;35069;47.906;1.892;2022-11-18T15:06:33;11.55;;;2.47;;
49237;SDS011;35069;47.906;1.892;2022-11-18T15:08:59;5.43;;;2.20;;
49237;SDS011;35069;47.906;1.892;2022-11-18T15:11:25;8.43;;;2.30;;
49237;SDS011;35069;47.906;1.892;2022-11-18T15:13:50;11.93;;;3.97;;
49237;SDS011;35069;47.906;1.892;2022-11-18T15:16:17;11.70;;;3.10;;
49237;SDS011;35069;47.906;1.892;2022-11-18T15:18:56;11.90;;;3.35;;
49237;SDS011;35069;47.906;1.892;2022-11-18T15:21:23;23.23;;;5.50;;
49237;SDS011;35069;47.906;1.892;2022-11-18T15:23:49;9.68;;;2.33;;
49237;SDS011;35069;47.906;1.892;2022-11-18T15:26:19;16.10;;;2.65;;
49237;SDS011;35069;47.906;1.892;2022-11-18T15:28:50;14.60;;;3.38;;
49237;SDS011;35069;47.906;1.892;2022-11-18T15:31:21;11.65;;;2.38;;
49237;SDS011;35069;47.906;1.892;2022-11-18T15:33:48;14.10;;;2.00;;
49237;SDS011;35069;47.906;1.892;2022-11-18T15:36:15;11.80;;;2.53;;
49237;SDS011;35069;47.906;1.892;2022-11-18T15:38:43;15.05;;;2.45;;
49237;SDS011;35069;47.906;1.892;2022-11-18T15:41:19;6.43;;;2.85;;
49237;SDS011;35069;47.906;1.892;2022-11-18T15:43:50;10.63;;;3.75;;
49237;SDS011;35069;47.906;1.892;2022-11-18T15:46:17;8.05;;;2.05;;
49237;SDS011;35069;47.906;1.892;2022-11-18T15:48:43;9.45;;;2.28;;
49237;SDS011;35069;47.906;1.892;2022-11-18T15:51:10;9.52;;;1.98;;
49237;SDS011;35069;47.906;1.892;2022-11-18T15:53:36;9.18;;;2.67;;
49237;SDS011;35069;47.906;1.892;2022-11-18T15:59:00;10.02;;;2.85;;
49237;SDS011;35069;47.906;1.892;2022-11-18T16:01:33;8.52;;;2.60;;
49237;SDS011;35069;47.906;1.892;2022-11-18T16:04:11;12.10;;;3.45;;
49237;SDS011;35069;47.906;1.892;2022-11-18T16:06:44;10.75;;;2.35;;
49237;SDS011;35069;47.906;1.892;2022-11-18T16:09:15;13.95;;;3.20;;
49237;SDS011;35069;47.906;1.892;2022-11-18T16:11:41;8.32;;;2.50;;
49237;SDS011;35069;47.906;1.892;2022-11-18T16:14:25;9.57;;;2.25;;
49237;SDS011;35069;47.906;1.892;2022-11-18T16:16:52;5.60;;;2.92;;
49237;SDS011;35069;47.906;1.892;2022-11-18T16:19:20;11.20;;;2.45;;
49237;SDS011;35069;47.906;1.892;2022-11-18T16:21:49;5.28;;;2.47;;
49237;SDS011;35069;47.906;1.892;2022-11-18T16:24:20;12.80;;;2.83;;
49237;SDS011;35069;47.906;1.892;2022-11-18T16:26:47;13.02;;;3.92;;
49237;SDS011;35069;47.906;1.892;2022-11-18T16:29:13;13.13;;;3.17;;
49237;SDS011;35069;47.906;1.892;2022-11-18T16:31:40;13.25;;;3.58;;
49237;SDS011;35069;47.906;1.892;2022-11-18T16:36:47;17.23;;;6.00;;
49237;SDS011;35069;47.906;1.892;2022-11-18T16:39:15;19.65;;;6.40;;
49237;SDS011;35069;47.906;1.892;2022-11-18T16:41:42;17.27;;;7.63;;
49237;SDS011;35069;47.906;1.892;2022-11-18T16:44:12;15.85;;;6.63;;
49237;SDS011;35069;47.906;1.892;2022-11-18T16:46:40;14.27;;;5.95;;
49237;SDS011;35069;47.906;1.892;2022-11-18T16:49:10;15.48;;;5.97;;
49237;SDS011;35069;47.906;1.892;2022-11-18T16:51:37;16.48;;;5.05;;
49237;SDS011;35069;47.906;1.892;2022-11-18T16:54:05;13.30;;;5.05;;
49237;SDS011;35069;47.906;1.892;2022-11-18T16:56:32;15.23;;;6.43;;
49237;SDS011;35069;47.906;1.892;2022-11-18T16:58:59;14.65;;;7.15;;
49237;SDS011;35069;47.906;1.892;2022-11-18T17:01:30;15.23;;;7.10;;
49237;SDS011;35069;47.906;1.892;2022-11-18T17:03:56;16.33;;;8.77;;
49237;SDS011;35069;47.906;1.892;2022-11-18T17:06:24;23.27;;;9.07;;
49237;SDS011;35069;47.906;1.892;2022-11-18T17:08:50;19.35;;;9.70;;